createdAt,value
2018-01-14T00:02:03.857Z,98120
2018-01-14T00:04:32.161Z,98117
2018-01-14T00:07:00.522Z,98115
2018-01-14T00:09:28.862Z,98109
2018-01-14T00:11:57.195Z,98111
2018-01-14T00:14:25.573Z,98108
2018-01-14T00:16:53.886Z,98110
2018-01-14T00:19:22.210Z,98107
2018-01-14T00:21:50.540Z,98109
2018-01-14T00:24:18.886Z,98107
2018-01-14T00:26:47.240Z,98111
2018-01-14T00:29:15.586Z,98109
2018-01-14T00:31:43.978Z,98104
2018-01-14T00:34:12.285Z,98101
2018-01-14T00:36:40.672Z,98105
2018-01-14T00:39:09.389Z,98103
2018-01-14T00:41:37.749Z,98102
2018-01-14T00:44:06.089Z,98104
2018-01-14T00:46:34.424Z,98097
2018-01-14T00:49:02.771Z,98099
2018-01-14T00:51:31.114Z,98098
2018-01-14T00:53:59.422Z,98100
2018-01-14T00:56:27.737Z,98099
2018-01-14T00:58:56.076Z,98097
2018-01-14T01:01:24.442Z,98097
2018-01-14T01:03:52.773Z,98097
2018-01-14T01:06:21.145Z,98096
2018-01-14T01:08:49.454Z,98099
2018-01-14T01:11:17.793Z,98100
2018-01-14T01:13:46.149Z,98099
2018-01-14T01:16:14.523Z,98097
2018-01-14T01:18:42.864Z,98094
2018-01-14T01:21:11.224Z,98091
2018-01-14T01:23:39.532Z,98095
2018-01-14T01:26:07.861Z,98094
2018-01-14T01:28:36.189Z,98094
2018-01-14T01:31:04.533Z,98090
2018-01-14T01:33:32.866Z,98087
2018-01-14T01:36:01.203Z,98085
2018-01-14T01:38:29.625Z,98080
2018-01-14T01:40:57.946Z,98086
2018-01-14T01:43:26.257Z,98089
2018-01-14T01:45:54.573Z,98083
2018-01-14T01:48:22.906Z,98087
2018-01-14T01:50:52.238Z,98076
2018-01-14T01:53:20.535Z,98082
2018-01-14T01:55:49.144Z,98080
2018-01-14T01:58:17.799Z,98082
2018-01-14T02:00:46.107Z,98078
2018-01-14T02:03:14.430Z,98081
2018-01-14T02:05:42.724Z,98079
2018-01-14T02:08:11.017Z,98074
2018-01-14T02:10:39.324Z,98074
2018-01-14T02:13:07.624Z,98073
2018-01-14T02:15:35.929Z,98070
2018-01-14T02:18:04.283Z,98064
2018-01-14T02:20:32.670Z,98064
2018-01-14T02:23:00.989Z,98065
2018-01-14T02:25:29.338Z,98062
2018-01-14T02:27:57.630Z,98061
2018-01-14T02:30:25.961Z,98060
2018-01-14T02:32:54.256Z,98061
2018-01-14T02:35:23.572Z,98058
2018-01-14T02:37:51.914Z,98061
2018-01-14T02:40:20.214Z,98062
2018-01-14T02:42:48.606Z,98063
2018-01-14T02:45:16.920Z,98059
2018-01-14T02:47:45.217Z,98060
2018-01-14T02:50:13.592Z,98054
2018-01-14T02:52:41.942Z,98054
2018-01-14T02:55:10.246Z,98055
2018-01-14T02:57:38.567Z,98055
2018-01-14T03:00:07.014Z,98056
2018-01-14T03:02:35.320Z,98051
2018-01-14T03:05:03.632Z,98052
2018-01-14T03:07:31.983Z,98050
2018-01-14T03:10:00.279Z,98050
2018-01-14T03:12:28.576Z,98046
2018-01-14T03:14:56.899Z,98046
2018-01-14T03:17:25.199Z,98048
2018-01-14T03:19:53.505Z,98041
2018-01-14T03:22:21.825Z,98046
2018-01-14T03:24:50.120Z,98050
2018-01-14T03:27:18.452Z,98048
2018-01-14T03:29:46.870Z,98045
2018-01-14T03:32:15.177Z,98050
2018-01-14T03:34:43.616Z,98046
2018-01-14T03:37:11.940Z,98047
2018-01-14T03:39:40.249Z,98046
2018-01-14T03:42:08.646Z,98044
2018-01-14T03:44:37.912Z,98041
2018-01-14T03:47:06.233Z,98039
2018-01-14T03:49:34.545Z,98040
2018-01-14T03:52:03.005Z,98045
2018-01-14T03:54:33.542Z,98042
2018-01-14T03:57:01.839Z,98040
2018-01-14T03:59:30.170Z,98042
2018-01-14T04:01:58.523Z,98043
2018-01-14T04:04:26.851Z,98045
2018-01-14T04:06:55.192Z,98044
2018-01-14T04:09:23.514Z,98049
2018-01-14T04:11:51.808Z,98046
2018-01-14T04:14:20.165Z,98050
2018-01-14T04:16:48.544Z,98046
2018-01-14T04:19:23.199Z,98048
2018-01-14T04:21:51.513Z,98047
2018-01-14T04:24:19.909Z,98052
2018-01-14T04:26:48.365Z,98051
2018-01-14T04:29:16.659Z,98055
2018-01-14T04:31:45.621Z,98053
2018-01-14T04:34:13.984Z,98054
2018-01-14T04:36:43.160Z,98051
2018-01-14T04:39:12.503Z,98054
2018-01-14T04:41:40.812Z,98056
2018-01-14T04:44:09.113Z,98056
2018-01-14T04:46:37.426Z,98061
2018-01-14T04:49:05.733Z,98061
2018-01-14T04:51:34.975Z,98053
2018-01-14T04:54:03.949Z,98054
2018-01-14T04:56:32.282Z,98057
2018-01-14T04:59:00.591Z,98057
2018-01-14T05:01:28.941Z,98056
2018-01-14T05:03:57.225Z,98058
2018-01-14T05:06:25.565Z,98056
2018-01-14T05:08:53.888Z,98059
2018-01-14T05:11:22.220Z,98057
2018-01-14T05:13:50.536Z,98057
2018-01-14T05:16:18.843Z,98056
2018-01-14T05:18:48.059Z,98057
2018-01-14T05:21:16.380Z,98058
2018-01-14T05:23:44.665Z,98055
2018-01-14T05:26:13.725Z,98063
2018-01-14T05:28:42.013Z,98061
2018-01-14T05:31:10.651Z,98060
2018-01-14T05:33:38.939Z,98063
2018-01-14T05:36:07.409Z,98064
2018-01-14T05:38:35.754Z,98065
2018-01-14T05:41:04.060Z,98071
2018-01-14T05:43:32.358Z,98072
2018-01-14T05:46:01.587Z,98071
2018-01-14T05:48:29.881Z,98074
2018-01-14T05:50:58.171Z,98073
2018-01-14T05:53:26.482Z,98074
2018-01-14T05:55:54.773Z,98071
2018-01-14T05:58:23.090Z,98074
2018-01-14T06:00:51.392Z,98071
2018-01-14T06:03:19.700Z,98071
2018-01-14T06:05:48.024Z,98075
2018-01-14T06:08:16.410Z,98077
2018-01-14T06:10:44.745Z,98085
2018-01-14T06:13:13.055Z,98079
2018-01-14T06:15:41.336Z,98079
2018-01-14T06:18:09.769Z,98075
2018-01-14T06:20:38.061Z,98074
2018-01-14T06:23:06.358Z,98077
2018-01-14T06:25:34.764Z,98080
2018-01-14T06:28:03.035Z,98077
2018-01-14T06:30:31.375Z,98078
2018-01-14T06:32:59.678Z,98072
2018-01-14T06:35:27.966Z,98075
2018-01-14T06:37:56.287Z,98081
2018-01-14T06:40:24.585Z,98079
2018-01-14T06:42:52.909Z,98087
2018-01-14T06:45:21.204Z,98083
2018-01-14T06:47:49.505Z,98086
2018-01-14T06:50:17.832Z,98084
2018-01-14T06:52:46.128Z,98086
2018-01-14T06:55:14.399Z,98090
2018-01-14T06:57:42.733Z,98090
2018-01-14T07:00:12.002Z,98092
2018-01-14T07:02:40.326Z,98087
2018-01-14T07:05:08.635Z,98091
2018-01-14T07:07:37.842Z,98083
2018-01-14T07:10:06.168Z,98087
2018-01-14T07:12:35.314Z,98090
2018-01-14T07:15:03.622Z,98097
2018-01-14T07:17:31.932Z,98096
2018-01-14T07:20:00.265Z,98099
2018-01-14T07:22:28.612Z,98103
2018-01-14T07:24:57.761Z,98101
2018-01-14T07:27:26.058Z,98102
2018-01-14T07:29:54.368Z,98108
2018-01-14T07:32:22.989Z,98104
2018-01-14T07:34:51.317Z,98105
2018-01-14T07:37:19.652Z,98107
2018-01-14T07:39:47.953Z,98107
2018-01-14T07:42:17.660Z,98106
2018-01-14T07:44:46.816Z,98105
2018-01-14T07:47:15.388Z,98112
2018-01-14T07:49:43.694Z,98117
2018-01-14T07:52:12.040Z,98120
2018-01-14T07:54:40.379Z,98122
2018-01-14T07:57:09.703Z,98124
2018-01-14T07:59:38.014Z,98128
2018-01-14T08:02:06.338Z,98131
2018-01-14T08:04:34.669Z,98131
2018-01-14T08:07:02.978Z,98129
2018-01-14T08:09:31.327Z,98126
2018-01-14T08:11:59.612Z,98132
2018-01-14T08:14:27.911Z,98132
2018-01-14T08:16:56.251Z,98129
2018-01-14T08:19:24.631Z,98135
2018-01-14T08:21:53.693Z,98139
2018-01-14T08:24:22.012Z,98146
2018-01-14T08:26:50.302Z,98151
2018-01-14T08:29:18.597Z,98163
2018-01-14T08:31:46.913Z,98168
2018-01-14T08:34:15.240Z,98162
2018-01-14T08:36:43.525Z,98170
2018-01-14T08:39:11.824Z,98172
2018-01-14T08:41:40.145Z,98180
2018-01-14T08:44:08.456Z,98182
2018-01-14T08:46:36.782Z,98179
2018-01-14T08:49:05.133Z,98180
2018-01-14T08:51:33.432Z,98185
2018-01-14T08:54:01.778Z,98183
2018-01-14T08:56:30.088Z,98189
2018-01-14T08:58:58.397Z,98192
2018-01-14T09:14:50.565Z,98206
2018-01-14T09:17:18.908Z,98215
2018-01-14T09:19:47.212Z,98216
2018-01-14T09:22:15.514Z,98212
2018-01-14T09:24:43.812Z,98218
2018-01-14T09:27:12.190Z,98212
2018-01-14T09:29:40.526Z,98216
2018-01-14T09:32:08.824Z,98217
2018-01-14T09:34:38.099Z,98217
2018-01-14T09:37:06.396Z,98217
2018-01-14T09:39:34.781Z,98214
2018-01-14T09:42:03.083Z,98212
2018-01-14T09:44:31.452Z,98212
2018-01-14T09:46:59.795Z,98218
2018-01-14T09:49:28.092Z,98212
2018-01-14T09:51:56.436Z,98214
2018-01-14T09:54:24.758Z,98215
2018-01-14T09:56:53.250Z,98217
2018-01-14T09:59:21.594Z,98214
2018-01-14T10:01:49.943Z,98216
2018-01-14T10:04:19.184Z,98218
2018-01-14T10:06:47.540Z,98211
2018-01-14T10:09:15.954Z,98212
2018-01-14T10:11:44.355Z,98211
2018-01-14T10:14:12.682Z,98208
2018-01-14T10:16:41.040Z,98206
2018-01-14T10:19:09.334Z,98208
2018-01-14T10:21:37.652Z,98201
2018-01-14T10:24:05.985Z,98204
2018-01-14T10:26:34.311Z,98203
2018-01-14T10:29:03.541Z,98204
2018-01-14T10:31:31.876Z,98203
2018-01-14T10:34:00.183Z,98201
2018-01-14T10:36:28.510Z,98197
2018-01-14T10:38:57.094Z,98198
2018-01-14T10:41:25.449Z,98201
2018-01-14T10:43:53.868Z,98203
2018-01-14T10:46:22.326Z,98199
2018-01-14T10:48:50.639Z,98204
2018-01-14T10:51:18.957Z,98203
2018-01-14T10:53:47.308Z,98200
2018-01-14T10:56:15.726Z,98202
2018-01-14T10:58:44.475Z,98198
2018-01-14T11:01:12.844Z,98189
2018-01-14T11:03:41.279Z,98191
2018-01-14T11:06:09.609Z,98191
2018-01-14T11:08:38.099Z,98188
2018-01-14T11:11:06.455Z,98193
2018-01-14T11:13:34.819Z,98188
2018-01-14T11:16:03.386Z,98186
2018-01-14T11:18:31.788Z,98186
2018-01-14T11:21:00.084Z,98181
2018-01-14T11:23:28.413Z,98178
2018-01-14T11:25:56.725Z,98176
2018-01-14T11:28:36.591Z,98177
2018-01-14T11:31:04.965Z,98181
2018-01-14T11:33:33.303Z,98173
2018-01-14T11:36:01.638Z,98175
2018-01-14T11:38:29.953Z,98183
2018-01-14T11:40:58.307Z,98180
2018-01-14T11:43:26.687Z,98180
2018-01-14T11:45:55.002Z,98179
2018-01-14T11:48:23.480Z,98172
2018-01-14T11:50:51.852Z,98175
2018-01-14T11:53:20.181Z,98172
2018-01-14T11:55:48.566Z,98169
2018-01-14T11:58:16.900Z,98176
2018-01-14T12:00:45.300Z,98176
2018-01-14T12:03:13.640Z,98176
2018-01-14T12:05:42.928Z,98177
2018-01-14T12:08:11.287Z,98172
2018-01-14T12:10:39.672Z,98165
2018-01-14T12:13:07.992Z,98171
2018-01-14T12:15:36.447Z,98163
2018-01-14T12:18:04.790Z,98157
2018-01-14T12:20:33.121Z,98164
2018-01-14T12:23:01.405Z,98158
2018-01-14T12:25:29.687Z,98165
2018-01-14T12:27:58.672Z,98161
2018-01-14T12:30:27.034Z,98163
2018-01-14T12:33:03.134Z,98165
2018-01-14T12:35:31.482Z,98157
2018-01-14T12:37:59.803Z,98161
2018-01-14T12:40:28.155Z,98164
2018-01-14T12:42:56.452Z,98158
2018-01-14T12:45:24.801Z,98158
2018-01-14T12:47:53.126Z,98167
2018-01-14T12:50:21.425Z,98170
2018-01-14T12:52:50.352Z,98170
2018-01-14T12:55:18.664Z,98171
2018-01-14T12:57:46.963Z,98171
2018-01-14T13:00:15.462Z,98167
2018-01-14T13:02:43.824Z,98161
2018-01-14T13:05:12.129Z,98161
2018-01-14T13:07:40.439Z,98162
2018-01-14T13:10:08.778Z,98160
2018-01-14T13:12:37.178Z,98164
2018-01-14T13:15:05.504Z,98168
2018-01-14T13:17:33.885Z,98167
2018-01-14T13:20:02.253Z,98169
2018-01-14T13:22:30.562Z,98164
2018-01-14T13:24:58.877Z,98168
2018-01-14T13:27:28.050Z,98176
2018-01-14T13:29:56.377Z,98182
2018-01-14T13:32:24.736Z,98182
2018-01-14T13:34:53.203Z,98186
2018-01-14T13:37:21.558Z,98186
2018-01-14T13:39:49.906Z,98179
2018-01-14T13:42:18.227Z,98185
2018-01-14T13:44:46.521Z,98190
2018-01-14T13:47:14.898Z,98190
2018-01-14T13:49:43.195Z,98189
2018-01-14T13:52:12.307Z,98183
2018-01-14T13:54:40.603Z,98181
2018-01-14T13:57:08.948Z,98179
2018-01-14T13:59:37.258Z,98178
2018-01-14T14:02:05.610Z,98184
2018-01-14T14:04:34.002Z,98187
2018-01-14T14:07:02.333Z,98181
2018-01-14T14:09:30.669Z,98180
2018-01-14T14:11:59.025Z,98186
2018-01-14T14:14:27.310Z,98189
2018-01-14T14:16:55.640Z,98189
2018-01-14T14:19:23.924Z,98184
2018-01-14T14:21:52.225Z,98184
2018-01-14T14:24:20.555Z,98187
2018-01-14T14:26:48.848Z,98190
2018-01-14T14:29:17.167Z,98192
2018-01-14T14:31:45.509Z,98190
2018-01-14T14:34:13.824Z,98196
2018-01-14T14:36:42.159Z,98193
2018-01-14T14:39:10.564Z,98189
2018-01-14T14:41:39.060Z,98188
2018-01-14T14:44:07.411Z,98192
2018-01-14T14:46:35.768Z,98199
2018-01-14T14:49:04.113Z,98207
2018-01-14T14:51:32.461Z,98206
2018-01-14T14:54:00.785Z,98206
2018-01-14T14:56:29.091Z,98200
2018-01-14T14:58:57.424Z,98194
2018-01-14T15:01:25.795Z,98197
2018-01-14T15:03:55.090Z,98199
2018-01-14T15:06:23.487Z,98199
2018-01-14T15:08:51.783Z,98204
2018-01-14T15:11:20.120Z,98203
2018-01-14T15:13:48.459Z,98207
2018-01-14T15:16:16.753Z,98204
2018-01-14T15:18:45.083Z,98207
2018-01-14T15:21:13.412Z,98208
2018-01-14T15:23:41.776Z,98210
2018-01-14T15:26:10.859Z,98211
2018-01-14T15:28:39.193Z,98213
2018-01-14T15:31:08.465Z,98210
2018-01-14T15:33:36.795Z,98219
2018-01-14T15:36:05.146Z,98213
2018-01-14T15:38:33.712Z,98212
2018-01-14T15:41:02.033Z,98216
2018-01-14T15:43:30.354Z,98221
2018-01-14T15:45:59.493Z,98228
2018-01-14T15:48:27.830Z,98225
2018-01-14T15:50:56.165Z,98226
2018-01-14T15:53:24.463Z,98231
2018-01-14T15:55:52.812Z,98233
2018-01-14T15:58:21.107Z,98227
2018-01-14T16:00:49.537Z,98231
2018-01-14T16:03:17.917Z,98225
2018-01-14T16:05:46.364Z,98228
2018-01-14T16:08:14.710Z,98226
2018-01-14T16:10:43.667Z,98222
2018-01-14T16:13:12.024Z,98221
2018-01-14T16:15:40.399Z,98224
2018-01-14T16:18:08.780Z,98230
2018-01-14T16:20:37.118Z,98235
2018-01-14T16:23:05.457Z,98238
2018-01-14T16:25:33.803Z,98230
2018-01-14T16:28:02.159Z,98234
2018-01-14T16:30:30.500Z,98232
2018-01-14T16:32:58.842Z,98234
2018-01-14T16:35:27.176Z,98236
2018-01-14T16:37:55.506Z,98239
2018-01-14T16:40:23.864Z,98241
2018-01-14T16:42:52.208Z,98240
2018-01-14T16:45:20.529Z,98236
2018-01-14T16:47:48.840Z,98242
2018-01-14T16:50:17.189Z,98248
2018-01-14T16:52:45.577Z,98250
2018-01-14T16:55:13.966Z,98247
2018-01-14T16:57:42.302Z,98251
2018-01-14T17:00:10.668Z,98246
2018-01-14T17:02:38.977Z,98253
2018-01-14T17:05:07.327Z,98254
2018-01-14T17:07:35.659Z,98256
2018-01-14T17:10:04.058Z,98259
2018-01-14T17:12:32.410Z,98258
2018-01-14T17:15:00.818Z,98257
2018-01-14T17:17:29.211Z,98257
2018-01-14T17:19:57.562Z,98262
2018-01-14T17:22:26.666Z,98266
2018-01-14T17:24:54.965Z,98266
2018-01-14T17:27:23.298Z,98268
2018-01-14T17:29:51.711Z,98274
2018-01-14T17:32:20.024Z,98273
2018-01-14T17:34:48.464Z,98279
2018-01-14T17:37:16.855Z,98279
2018-01-14T17:39:45.269Z,98281
2018-01-14T17:42:14.986Z,98278
2018-01-14T17:44:43.286Z,98276
2018-01-14T17:47:11.600Z,98274
2018-01-14T17:49:39.962Z,98284
2018-01-14T17:52:08.287Z,98281
2018-01-14T17:54:37.006Z,98284
2018-01-14T17:57:05.398Z,98283
2018-01-14T17:59:33.681Z,98283
2018-01-14T18:02:02.018Z,98288
2018-01-14T18:04:30.411Z,98279
2018-01-14T18:06:58.751Z,98286
2018-01-14T18:09:27.060Z,98286
2018-01-14T18:11:55.398Z,98290
2018-01-14T18:14:23.768Z,98298
2018-01-14T18:16:59.930Z,98297
2018-01-14T18:19:28.520Z,98299
2018-01-14T18:21:56.848Z,98301
2018-01-14T18:24:25.175Z,98300
2018-01-14T18:26:53.536Z,98304
2018-01-14T18:29:21.885Z,98308
2018-01-14T18:31:50.266Z,98306
2018-01-14T18:34:18.655Z,98309
2018-01-14T18:36:47.062Z,98308
2018-01-14T18:39:15.405Z,98307
2018-01-14T18:41:44.066Z,98317
2018-01-14T18:44:12.542Z,98310
2018-01-14T18:46:40.849Z,98313
2018-01-14T18:49:09.231Z,98317
2018-01-14T18:51:37.566Z,98317
2018-01-14T18:54:05.898Z,98319
2018-01-14T18:56:34.204Z,98326
2018-01-14T18:59:02.566Z,98321
2018-01-14T19:01:30.922Z,98323
2018-01-14T19:03:59.232Z,98324
2018-01-14T19:06:27.556Z,98321
2018-01-14T19:08:55.934Z,98317
2018-01-14T19:11:24.272Z,98325
2018-01-14T19:13:56.417Z,98318
2018-01-14T19:16:24.907Z,98317
2018-01-14T19:18:53.259Z,98322
2018-01-14T19:21:21.605Z,98323
2018-01-14T19:23:49.967Z,98325
2018-01-14T19:26:18.473Z,98324
2018-01-14T19:28:46.817Z,98329
2018-01-14T19:31:15.245Z,98325
2018-01-14T19:33:43.828Z,98328
2018-01-14T19:36:12.130Z,98331
2018-01-14T19:38:40.500Z,98333
2018-01-14T19:41:08.833Z,98334
2018-01-14T19:43:37.156Z,98338
2018-01-14T19:46:06.026Z,98339
2018-01-14T19:48:34.384Z,98338
2018-01-14T19:51:02.734Z,98341
2018-01-14T19:53:31.150Z,98339
2018-01-14T19:55:59.468Z,98337
2018-01-14T19:58:27.895Z,98343
2018-01-14T20:00:56.208Z,98345
2018-01-14T20:03:24.520Z,98341
2018-01-14T20:05:52.817Z,98349
2018-01-14T20:08:21.137Z,98352
2018-01-14T20:10:49.445Z,98347
2018-01-14T20:13:17.984Z,98346
2018-01-14T20:15:46.339Z,98353
2018-01-14T20:18:15.872Z,98352
2018-01-14T20:20:44.200Z,98351
2018-01-14T20:23:12.529Z,98341
2018-01-14T20:25:41.028Z,98348
2018-01-14T20:28:09.389Z,98344
2018-01-14T20:30:37.752Z,98341
2018-01-14T20:33:06.515Z,98345
2018-01-14T20:35:34.901Z,98345
2018-01-14T20:38:03.290Z,98341
2018-01-14T20:40:31.863Z,98339
2018-01-14T20:43:00.256Z,98338
2018-01-14T20:45:28.630Z,98340
2018-01-14T20:47:56.947Z,98336
2018-01-14T20:50:25.652Z,98341
2018-01-14T20:52:54.019Z,98338
2018-01-14T20:55:22.390Z,98346
2018-01-14T20:57:50.798Z,98350
2018-01-14T21:00:19.154Z,98341
2018-01-14T21:02:47.506Z,98341
2018-01-14T21:05:15.898Z,98341
2018-01-14T21:07:44.375Z,98340
2018-01-14T21:10:12.733Z,98346
2018-01-14T21:12:41.051Z,98344
2018-01-14T21:15:09.480Z,98343
2018-01-14T21:17:37.802Z,98338
2018-01-14T21:20:06.126Z,98342
2018-01-14T21:22:34.430Z,98348
2018-01-14T21:25:02.823Z,98346
2018-01-14T21:27:32.398Z,98348
2018-01-14T21:30:00.777Z,98344
2018-01-14T21:32:29.211Z,98349
2018-01-14T21:34:57.538Z,98354
2018-01-14T21:37:25.872Z,98353
2018-01-14T21:39:54.711Z,98354
2018-01-14T21:42:23.109Z,98355
2018-01-14T21:44:51.647Z,98355
2018-01-14T21:47:20.157Z,98360
2018-01-14T21:49:48.542Z,98354
2018-01-14T21:52:17.065Z,98359
2018-01-14T21:54:45.423Z,98359
2018-01-14T21:57:13.833Z,98359
2018-01-14T21:59:42.294Z,98355
2018-01-14T22:02:10.621Z,98359
2018-01-14T22:04:38.976Z,98356
2018-01-14T22:07:07.271Z,98352
2018-01-14T22:09:35.586Z,98353
2018-01-14T22:12:03.988Z,98357
2018-01-14T22:14:32.306Z,98356
2018-01-14T22:17:00.608Z,98356
2018-01-14T22:19:28.943Z,98359
2018-01-14T22:21:57.254Z,98357
2018-01-14T22:24:25.562Z,98359
2018-01-14T22:26:53.965Z,98361
2018-01-14T22:29:22.311Z,98350
2018-01-14T22:31:50.630Z,98345
2018-01-14T22:34:19.132Z,98346
2018-01-14T22:36:47.487Z,98346
2018-01-14T22:39:15.834Z,98347
2018-01-14T22:41:44.153Z,98348
2018-01-14T22:44:12.444Z,98339
2018-01-14T22:46:40.731Z,98345
2018-01-14T22:49:09.017Z,98345
2018-01-14T22:51:38.158Z,98347
2018-01-14T22:54:06.457Z,98343
2018-01-14T22:56:34.752Z,98341
2018-01-14T22:59:03.140Z,98340
2018-01-14T23:01:31.528Z,98338
2018-01-14T23:03:59.872Z,98335
2018-01-14T23:06:28.490Z,98338
2018-01-14T23:08:56.964Z,98337
2018-01-14T23:11:25.282Z,98333
2018-01-14T23:13:53.584Z,98333
2018-01-14T23:16:21.988Z,98334
2018-01-14T23:18:50.304Z,98333
2018-01-14T23:21:18.621Z,98330
2018-01-14T23:23:47.008Z,98331
2018-01-14T23:26:15.355Z,98330
2018-01-14T23:28:43.690Z,98328
2018-01-14T23:31:12.008Z,98328
2018-01-14T23:33:40.449Z,98325
2018-01-14T23:36:08.786Z,98326
2018-01-14T23:38:37.069Z,98321
2018-01-14T23:41:05.398Z,98324
2018-01-14T23:43:33.788Z,98322
2018-01-14T23:46:02.248Z,98314
2018-01-14T23:48:30.569Z,98323
2018-01-14T23:50:58.916Z,98317
2018-01-14T23:53:27.248Z,98317
2018-01-14T23:55:55.561Z,98320
2018-01-14T23:58:23.877Z,98318
